createdAt,value
2023-04-25T00:00:24.334Z,13.13
2023-04-25T00:02:51.568Z,18.23
2023-04-25T00:05:19.361Z,17.95
2023-04-25T00:07:48.017Z,14.65
2023-04-25T00:10:15.758Z,12.13
2023-04-25T00:12:43.001Z,13.40
2023-04-25T00:15:10.673Z,14.00
2023-04-25T00:17:39.353Z,12.38
2023-04-25T00:20:09.891Z,20.50
2023-04-25T00:22:38.568Z,14.60
2023-04-25T00:25:07.267Z,21.77
2023-04-25T00:27:34.428Z,15.10
2023-04-25T00:30:02.667Z,17.45
2023-04-25T00:32:29.981Z,15.75
2023-04-25T00:34:59.031Z,17.95
2023-04-25T00:37:26.393Z,19.73
2023-04-25T00:39:54.694Z,17.73
2023-04-25T00:42:22.418Z,16.13
2023-04-25T00:44:49.720Z,19.40
2023-04-25T00:47:17.499Z,14.25
2023-04-25T00:49:44.716Z,16.02
2023-04-25T00:52:13.137Z,14.63
2023-04-25T00:54:40.596Z,17.42
2023-04-25T00:57:07.697Z,14.52
2023-04-25T00:59:35.453Z,14.98
2023-04-25T01:02:02.809Z,15.95
2023-04-25T01:04:30.154Z,13.18
2023-04-25T01:06:57.824Z,16.65
2023-04-25T01:09:25.088Z,11.75
2023-04-25T01:11:52.350Z,13.50
2023-04-25T01:14:19.547Z,18.88
2023-04-25T01:16:47.544Z,21.85
2023-04-25T01:19:17.813Z,19.05
2023-04-25T01:21:47.407Z,15.15
2023-04-25T01:24:15.848Z,18.48
2023-04-25T01:26:50.691Z,14.98
2023-04-25T01:29:22.346Z,17.85
2023-04-25T01:31:50.000Z,15.52
2023-04-25T01:34:17.165Z,10.13
2023-04-25T01:36:44.668Z,14.07
2023-04-25T01:39:11.931Z,18.23
2023-04-25T01:41:40.032Z,15.20
2023-04-25T01:44:08.530Z,10.00
2023-04-25T01:46:37.264Z,15.45
2023-04-25T01:49:06.260Z,18.40
2023-04-25T01:51:33.886Z,13.40
2023-04-25T01:54:07.132Z,12.07
2023-04-25T01:56:34.569Z,11.68
2023-04-25T01:59:02.729Z,11.52
2023-04-25T02:01:41.870Z,18.05
2023-04-25T02:04:18.415Z,19.92
2023-04-25T02:06:45.720Z,14.18
2023-04-25T02:09:13.317Z,16.02
2023-04-25T02:11:46.441Z,13.93
2023-04-25T02:14:45.541Z,15.07
2023-04-25T02:17:20.081Z,15.23
2023-04-25T02:19:47.600Z,15.82
2023-04-25T02:22:14.931Z,12.23
2023-04-25T02:24:42.051Z,9.90
2023-04-25T02:27:09.453Z,15.95
2023-04-25T02:29:36.953Z,9.57
2023-04-25T02:32:04.292Z,15.95
2023-04-25T02:34:31.693Z,13.25
2023-04-25T02:37:01.713Z,18.80
2023-04-25T02:39:29.176Z,9.63
2023-04-25T02:41:56.998Z,9.60
2023-04-25T02:44:24.260Z,15.07
2023-04-25T02:46:52.040Z,13.57
2023-04-25T02:49:19.247Z,15.15
2023-04-25T02:51:46.401Z,14.90
2023-04-25T02:54:13.927Z,19.40
2023-04-25T02:56:44.695Z,14.18
2023-04-25T02:59:17.356Z,13.50
2023-04-25T03:01:44.732Z,16.27
2023-04-25T03:04:12.012Z,16.05
2023-04-25T03:06:39.522Z,15.73
2023-04-25T03:09:07.297Z,17.00
2023-04-25T03:11:34.517Z,16.52
2023-04-25T03:14:02.293Z,14.38
2023-04-25T03:16:29.593Z,17.00
2023-04-25T03:18:56.988Z,12.38
2023-04-25T03:21:24.500Z,16.02
2023-04-25T03:23:52.482Z,14.23
2023-04-25T03:26:20.317Z,15.57
2023-04-25T03:28:49.713Z,12.80
2023-04-25T03:31:16.823Z,12.93
2023-04-25T03:33:44.037Z,17.70
2023-04-25T03:36:11.698Z,13.57
2023-04-25T03:38:39.345Z,15.32
2023-04-25T03:41:07.409Z,13.18
2023-04-25T03:43:42.074Z,12.75
2023-04-25T03:46:12.940Z,11.05
2023-04-25T03:48:41.307Z,16.92
2023-04-25T03:51:10.381Z,16.50
2023-04-25T03:53:40.961Z,13.45
2023-04-25T03:56:21.281Z,11.38
2023-04-25T03:58:54.846Z,12.57
2023-04-25T04:01:24.473Z,11.82
2023-04-25T04:03:52.324Z,16.13
2023-04-25T04:06:21.711Z,17.45
2023-04-25T04:08:53.263Z,10.48
2023-04-25T04:11:21.578Z,18.33
2023-04-25T04:13:49.065Z,15.10
2023-04-25T04:16:16.601Z,9.05
2023-04-25T04:18:45.056Z,12.02
2023-04-25T04:21:12.619Z,13.65
2023-04-25T04:23:42.075Z,8.07
2023-04-25T04:26:11.134Z,11.75
2023-04-25T04:29:08.049Z,9.23
2023-04-25T04:31:48.964Z,11.15
2023-04-25T04:34:17.556Z,7.45
2023-04-25T04:36:47.086Z,12.38
2023-04-25T04:39:14.609Z,8.15
2023-04-25T04:41:55.953Z,12.70
2023-04-25T04:44:41.994Z,12.40
2023-04-25T04:47:33.544Z,11.40
2023-04-25T04:50:13.609Z,10.55
2023-04-25T04:53:13.502Z,12.57
2023-04-25T04:55:48.787Z,10.27
2023-04-25T04:58:31.125Z,9.35
2023-04-25T05:01:08.566Z,14.63
2023-04-25T05:04:01.328Z,10.02
2023-04-25T05:06:49.411Z,8.90
2023-04-25T05:09:20.342Z,8.52
2023-04-25T05:15:12.429Z,9.60
2023-04-25T05:17:58.316Z,10.57
2023-04-25T05:20:40.100Z,11.30
2023-04-25T05:23:26.636Z,10.93
2023-04-25T05:26:06.436Z,9.35
2023-04-25T05:28:43.994Z,14.25
2023-04-25T05:31:29.805Z,11.55
2023-04-25T05:34:03.889Z,9.85
2023-04-25T05:37:00.371Z,10.98
2023-04-25T05:39:28.183Z,8.40
2023-04-25T05:42:14.201Z,18.40
2023-04-25T05:44:50.709Z,11.88
2023-04-25T05:47:30.487Z,11.73
2023-04-25T05:50:12.127Z,9.13
2023-04-25T05:53:02.314Z,10.25
2023-04-25T05:55:43.749Z,8.65
2023-04-25T05:58:36.955Z,9.45
2023-04-25T06:01:04.706Z,7.82
2023-04-25T06:03:32.199Z,7.30
2023-04-25T06:05:59.816Z,7.90
2023-04-25T06:08:27.496Z,11.07
2023-04-25T06:10:54.827Z,8.15
2023-04-25T06:13:23.881Z,7.65
2023-04-25T06:15:51.051Z,7.90
2023-04-25T06:18:18.318Z,15.45
2023-04-25T06:20:45.600Z,9.48
2023-04-25T06:23:13.040Z,4.55
2023-04-25T06:25:53.839Z,9.15
2023-04-25T06:28:23.289Z,8.10
2023-04-25T06:30:50.550Z,6.10
2023-04-25T06:33:21.132Z,10.45
2023-04-25T06:35:48.691Z,10.88
2023-04-25T06:38:19.390Z,9.45
2023-04-25T06:40:49.898Z,8.95
2023-04-25T06:43:18.460Z,7.55
2023-04-25T06:46:04.048Z,10.38
2023-04-25T06:48:33.867Z,7.70
2023-04-25T06:51:01.726Z,8.90
2023-04-25T06:53:29.229Z,6.70
2023-04-25T06:56:04.118Z,5.72
2023-04-25T06:58:42.335Z,7.30
2023-04-25T07:01:28.178Z,7.50
2023-04-25T07:03:56.145Z,8.68
2023-04-25T07:06:24.204Z,8.25
2023-04-25T07:08:51.686Z,3.90
2023-04-25T07:11:18.951Z,8.05
2023-04-25T07:13:46.387Z,9.40
2023-04-25T07:16:13.503Z,12.52
2023-04-25T07:18:41.599Z,6.82
2023-04-25T07:21:10.536Z,9.05
2023-04-25T07:23:38.769Z,13.38
2023-04-25T07:26:11.181Z,5.88
2023-04-25T07:28:45.667Z,7.25
2023-04-25T07:31:12.861Z,8.82
2023-04-25T07:33:40.140Z,7.15
2023-04-25T07:36:07.954Z,10.65
2023-04-25T07:38:35.493Z,11.02
2023-04-25T07:41:02.873Z,9.25
2023-04-25T07:43:30.244Z,6.88
2023-04-25T07:45:59.797Z,10.30
2023-04-25T07:48:29.523Z,9.38
2023-04-25T07:51:00.301Z,9.30
2023-04-25T07:53:28.037Z,11.60
2023-04-25T07:56:00.162Z,10.13
2023-04-25T07:58:29.732Z,10.43
2023-04-25T08:01:00.910Z,6.88
2023-04-25T08:03:34.382Z,9.45
2023-04-25T08:06:07.674Z,10.27
2023-04-25T08:08:42.113Z,13.45
2023-04-25T08:11:11.706Z,7.53
2023-04-25T08:13:38.930Z,8.70
2023-04-25T08:16:06.468Z,4.13
2023-04-25T08:18:33.658Z,4.47
2023-04-25T08:21:00.943Z,8.50
2023-04-25T08:23:28.881Z,5.60
2023-04-25T08:26:05.828Z,9.07
2023-04-25T08:28:35.704Z,5.97
2023-04-25T08:31:03.401Z,6.22
2023-04-25T08:33:38.128Z,5.75
2023-04-25T08:36:31.460Z,9.05
2023-04-25T08:39:07.397Z,8.77
2023-04-25T08:41:42.436Z,8.73
2023-04-25T08:44:11.975Z,5.63
2023-04-25T08:46:41.786Z,6.78
2023-04-25T08:49:20.109Z,9.57
2023-04-25T08:51:48.516Z,7.55
2023-04-25T08:56:54.487Z,8.60
2023-04-25T08:59:24.180Z,6.85
2023-04-25T09:01:52.591Z,5.25
2023-04-25T09:04:22.761Z,4.18
2023-04-25T09:06:51.098Z,5.18
2023-04-25T09:09:17.817Z,7.70
2023-04-25T09:11:46.284Z,5.43
2023-04-25T09:14:21.448Z,7.40
2023-04-25T09:17:08.880Z,8.48
2023-04-25T09:19:42.498Z,4.90
2023-04-25T09:22:23.881Z,5.57
2023-04-25T09:24:52.217Z,3.85
2023-04-25T09:27:26.413Z,7.57
2023-04-25T09:30:01.893Z,5.25
2023-04-25T09:32:37.767Z,7.38
2023-04-25T09:35:06.120Z,6.82
2023-04-25T09:37:33.787Z,10.90
2023-04-25T09:40:08.976Z,4.60
2023-04-25T09:42:48.901Z,6.22
2023-04-25T09:45:16.403Z,4.57
2023-04-25T09:47:45.758Z,5.00
2023-04-25T09:50:18.230Z,7.10
2023-04-25T09:53:04.161Z,5.50
2023-04-25T09:58:08.801Z,6.95
2023-04-25T10:00:36.618Z,5.18
2023-04-25T10:03:17.132Z,6.53
2023-04-25T10:06:04.454Z,5.00
2023-04-25T10:08:34.082Z,6.07
2023-04-25T10:11:08.317Z,6.82
2023-04-25T10:13:36.769Z,7.38
2023-04-25T10:16:05.914Z,6.43
2023-04-25T10:18:33.758Z,4.90
2023-04-25T10:21:05.814Z,6.05
2023-04-25T10:23:35.380Z,7.72
2023-04-25T10:26:03.108Z,8.57
2023-04-25T10:28:30.298Z,4.68
2023-04-25T10:31:05.390Z,6.80
2023-04-25T10:33:40.623Z,8.88
2023-04-25T10:36:20.162Z,5.78
2023-04-25T10:38:50.542Z,3.30
2023-04-25T10:41:20.041Z,3.42
2023-04-25T10:43:48.855Z,7.72
2023-04-25T10:46:20.218Z,3.67
2023-04-25T10:48:52.231Z,5.40
2023-04-25T10:51:19.842Z,5.05
2023-04-25T10:54:07.401Z,4.25
2023-04-25T10:56:41.784Z,3.03
2023-04-25T10:59:10.975Z,4.93
2023-04-25T11:01:51.697Z,4.28
2023-04-25T11:04:32.098Z,6.95
2023-04-25T11:07:24.148Z,4.55
2023-04-25T11:09:51.332Z,6.05
2023-04-25T11:12:19.089Z,7.30
2023-04-25T11:14:46.134Z,5.30
2023-04-25T11:17:13.410Z,5.60
2023-04-25T11:19:40.733Z,5.90
2023-04-25T11:22:08.827Z,5.38
2023-04-25T11:24:37.916Z,6.05
2023-04-25T11:27:06.673Z,4.90
2023-04-25T11:29:36.396Z,4.05
2023-04-25T11:32:04.088Z,4.43
2023-04-25T11:34:32.328Z,3.67
2023-04-25T11:37:00.850Z,3.78
2023-04-25T11:39:28.625Z,5.10
2023-04-25T11:41:56.281Z,6.18
2023-04-25T11:44:23.679Z,5.15
2023-04-25T11:46:51.000Z,5.28
2023-04-25T11:49:22.167Z,6.13
2023-04-25T11:51:49.727Z,6.15
2023-04-25T11:54:17.289Z,6.57
2023-04-25T11:56:45.133Z,3.92
2023-04-25T11:59:13.009Z,5.22
2023-04-25T12:01:49.630Z,6.70
2023-04-25T12:04:24.537Z,5.55
2023-04-25T12:06:53.976Z,6.07
2023-04-25T12:09:28.344Z,8.82
2023-04-25T12:11:59.956Z,6.57
2023-04-25T12:14:28.271Z,6.47
2023-04-25T12:17:01.195Z,8.40
2023-04-25T12:19:34.297Z,5.57
2023-04-25T12:22:02.176Z,7.60
2023-04-25T12:24:29.427Z,6.68
2023-04-25T12:27:03.918Z,8.52
2023-04-25T12:29:41.994Z,6.45
2023-04-25T12:32:15.600Z,8.82
2023-04-25T12:34:43.459Z,6.43
2023-04-25T12:37:11.423Z,4.63
2023-04-25T12:39:39.289Z,5.03
2023-04-25T12:42:09.963Z,6.38
2023-04-25T12:44:37.415Z,6.68
2023-04-25T12:47:04.967Z,8.25
2023-04-25T12:49:32.806Z,5.07
2023-04-25T12:51:59.925Z,4.68
2023-04-25T12:54:26.983Z,4.72
2023-04-25T12:56:54.178Z,5.72
2023-04-25T12:59:22.249Z,5.15
2023-04-25T13:01:49.682Z,7.97
2023-04-25T13:04:17.513Z,5.95
2023-04-25T13:06:45.175Z,4.50
2023-04-25T13:09:13.330Z,5.47
2023-04-25T13:11:42.084Z,6.82
2023-04-25T13:14:09.491Z,4.95
2023-04-25T13:16:36.891Z,3.42
2023-04-25T13:19:04.166Z,3.15
2023-04-25T13:21:34.134Z,3.75
2023-04-25T13:24:01.800Z,5.75
2023-04-25T13:26:28.973Z,3.20
2023-04-25T13:28:56.300Z,3.47
2023-04-25T13:31:23.524Z,5.55
2023-04-25T13:33:50.988Z,5.50
2023-04-25T13:36:17.922Z,4.75
2023-04-25T13:38:46.160Z,5.80
2023-04-25T13:41:18.632Z,5.75
2023-04-25T13:43:48.846Z,3.47
2023-04-25T13:46:35.446Z,4.53
2023-04-25T13:49:12.310Z,8.55
2023-04-25T13:51:41.405Z,5.03
2023-04-25T13:54:14.283Z,4.55
2023-04-25T13:56:43.106Z,4.18
2023-04-25T13:59:10.607Z,4.22
2023-04-25T14:01:37.947Z,4.88
2023-04-25T14:04:11.571Z,5.57
2023-04-25T14:06:38.786Z,7.28
2023-04-25T14:09:07.801Z,6.05
2023-04-25T14:11:39.742Z,7.03
2023-04-25T14:14:10.368Z,6.38
2023-04-25T14:16:37.597Z,6.47
2023-04-25T14:19:06.965Z,6.45
2023-04-25T14:21:34.471Z,5.93
2023-04-25T14:24:04.275Z,5.18
2023-04-25T14:26:31.458Z,4.95
2023-04-25T14:29:00.780Z,7.18
2023-04-25T14:31:28.704Z,7.70
2023-04-25T14:33:59.156Z,6.60
2023-04-25T14:36:27.459Z,6.40
2023-04-25T14:38:57.171Z,5.35
2023-04-25T14:41:24.510Z,4.97
2023-04-25T14:43:52.256Z,4.50
2023-04-25T14:46:19.918Z,4.35
2023-04-25T14:48:48.163Z,4.85
2023-04-25T14:51:15.816Z,6.47
2023-04-25T14:53:43.468Z,7.75
2023-04-25T14:56:10.633Z,5.95
2023-04-25T14:58:38.672Z,7.25
2023-04-25T15:01:17.231Z,5.47
2023-04-25T15:03:45.823Z,3.55
2023-04-25T15:06:13.573Z,4.65
2023-04-25T15:08:40.941Z,2.80
2023-04-25T15:11:08.526Z,3.55
2023-04-25T15:13:35.939Z,4.57
2023-04-25T15:16:02.969Z,3.67
2023-04-25T15:18:33.785Z,4.38
2023-04-25T15:21:47.239Z,6.25
2023-04-25T15:28:09.761Z,8.60
2023-04-25T15:30:37.146Z,4.97
2023-04-25T15:34:41.950Z,8.48
2023-04-25T15:36:19.806Z,5.75
2023-04-25T15:38:47.324Z,4.00
2023-04-25T15:41:14.697Z,10.18
2023-04-25T15:43:41.829Z,6.43
2023-04-25T15:46:09.038Z,5.95
2023-04-25T15:48:37.829Z,4.05
2023-04-25T15:51:04.960Z,4.38
2023-04-25T15:53:31.776Z,3.70
2023-04-25T15:55:59.014Z,5.53
2023-04-25T15:58:27.935Z,6.07
2023-04-25T16:00:56.779Z,6.05
2023-04-25T16:03:24.515Z,7.57
2023-04-25T16:05:53.024Z,5.82
2023-04-25T16:08:23.470Z,5.75
2023-04-25T16:10:50.629Z,7.70
2023-04-25T16:13:18.649Z,5.40
2023-04-25T16:15:46.030Z,6.15
2023-04-25T16:18:13.220Z,5.18
2023-04-25T16:20:40.417Z,4.72
2023-04-25T16:23:07.565Z,7.72
2023-04-25T16:25:34.973Z,7.35
2023-04-25T16:28:01.795Z,6.80
2023-04-25T16:30:29.263Z,6.28
2023-04-25T16:32:57.662Z,3.83
2023-04-25T16:35:25.603Z,6.15
2023-04-25T16:37:52.918Z,5.45
2023-04-25T16:40:22.279Z,8.75
2023-04-25T16:42:49.418Z,4.68
2023-04-25T16:45:20.183Z,7.30
2023-04-25T16:47:47.384Z,6.75
2023-04-25T16:50:15.198Z,6.30
2023-04-25T16:52:44.416Z,4.40
2023-04-25T16:55:11.904Z,5.72
2023-04-25T16:57:39.109Z,6.97
2023-04-25T17:00:06.960Z,7.13
2023-04-25T17:02:34.282Z,7.28
2023-04-25T17:05:01.802Z,5.60
2023-04-25T17:07:29.010Z,6.97
2023-04-25T17:09:56.325Z,9.35
2023-04-25T17:12:23.882Z,8.15
2023-04-25T17:14:51.106Z,3.35
2023-04-25T17:17:19.184Z,6.68
2023-04-25T17:19:46.706Z,6.35
2023-04-25T17:22:15.669Z,7.03
2023-04-25T17:24:43.102Z,8.82
2023-04-25T17:27:11.338Z,7.35
2023-04-25T17:29:38.691Z,5.55
2023-04-25T17:32:06.026Z,6.53
2023-04-25T17:34:33.526Z,4.72
2023-04-25T17:37:00.709Z,6.38
2023-04-25T17:39:27.910Z,6.70
2023-04-25T17:41:55.360Z,8.95
2023-04-25T17:44:22.660Z,6.85
2023-04-25T17:46:49.873Z,8.57
2023-04-25T17:49:17.127Z,10.65
2023-04-25T17:51:44.444Z,7.72
2023-04-25T17:54:11.970Z,7.75
2023-04-25T17:56:40.690Z,11.25
2023-04-25T17:59:07.894Z,9.90
2023-04-25T18:01:35.252Z,7.32
2023-04-25T18:04:04.287Z,8.13
2023-04-25T18:06:33.025Z,7.90
2023-04-25T18:09:00.476Z,7.88
2023-04-25T18:11:28.622Z,5.30
2023-04-25T18:13:56.367Z,8.75
2023-04-25T18:16:23.619Z,8.85
2023-04-25T18:18:54.259Z,10.95
2023-04-25T18:21:21.908Z,11.38
2023-04-25T18:23:49.356Z,8.25
2023-04-25T18:26:16.785Z,8.55
2023-04-25T18:28:43.986Z,7.93
2023-04-25T18:31:11.685Z,8.82
2023-04-25T18:33:38.949Z,8.65
2023-04-25T18:36:06.404Z,8.82
2023-04-25T18:38:36.043Z,8.10
2023-04-25T18:41:26.783Z,7.65
2023-04-25T18:43:51.980Z,12.70
2023-04-25T18:46:22.639Z,9.38
2023-04-25T18:48:50.681Z,6.93
2023-04-25T18:51:18.133Z,9.95
2023-04-25T18:53:46.086Z,5.20
2023-04-25T18:56:15.005Z,9.02
2023-04-25T18:58:43.692Z,7.57
2023-04-25T19:01:11.136Z,15.23
2023-04-25T19:03:40.340Z,12.13
2023-04-25T19:06:07.988Z,10.25
2023-04-25T19:08:34.886Z,9.23
2023-04-25T19:11:10.761Z,8.55
2023-04-25T19:13:41.633Z,11.27
2023-04-25T19:16:08.950Z,14.60
2023-04-25T19:18:36.463Z,10.10
2023-04-25T19:21:06.621Z,9.85
2023-04-25T19:23:33.891Z,10.13
2023-04-25T19:26:01.151Z,9.07
2023-04-25T19:28:30.473Z,7.85
2023-04-25T19:30:59.614Z,11.00
2023-04-25T19:33:27.228Z,9.45
2023-04-25T19:35:54.434Z,8.65
2023-04-25T19:38:21.778Z,9.60
2023-04-25T19:40:49.596Z,9.57
2023-04-25T19:43:16.985Z,10.10
2023-04-25T19:45:44.266Z,12.90
2023-04-25T19:48:12.588Z,11.65
2023-04-25T19:50:39.776Z,12.13
2023-04-25T19:53:07.003Z,13.30
2023-04-25T19:55:34.266Z,10.32
2023-04-25T19:58:07.898Z,8.45
2023-04-25T20:00:49.544Z,8.18
2023-04-25T20:03:23.118Z,12.15
2023-04-25T20:05:50.450Z,11.07
2023-04-25T20:08:17.654Z,10.18
2023-04-25T20:10:45.312Z,12.70
2023-04-25T20:13:12.662Z,10.38
2023-04-25T20:15:39.818Z,10.35
2023-04-25T20:18:07.199Z,9.75
2023-04-25T20:20:34.434Z,9.23
2023-04-25T20:23:01.570Z,12.57
2023-04-25T20:25:29.097Z,12.48
2023-04-25T20:30:40.305Z,13.95
2023-04-25T20:33:07.686Z,10.07
2023-04-25T20:35:35.206Z,10.45
2023-04-25T20:38:02.478Z,11.65
2023-04-25T20:40:29.808Z,12.00
2023-04-25T20:42:57.195Z,16.00
2023-04-25T20:45:26.201Z,14.70
2023-04-25T20:47:53.644Z,11.45
2023-04-25T20:50:21.445Z,11.75
2023-04-25T20:52:51.428Z,11.82
2023-04-25T20:55:18.715Z,9.98
2023-04-25T20:57:46.291Z,12.77
2023-04-25T21:00:18.657Z,9.38
2023-04-25T21:02:49.293Z,10.50
2023-04-25T21:05:16.629Z,11.25
2023-04-25T21:07:50.981Z,9.75
2023-04-25T21:10:19.366Z,9.98
2023-04-25T21:12:49.932Z,7.72
2023-04-25T21:15:19.464Z,9.85
2023-04-25T21:17:50.072Z,10.10
2023-04-25T21:23:04.115Z,13.25
2023-04-25T21:25:31.836Z,9.52
2023-04-25T21:27:59.875Z,8.48
2023-04-25T21:30:27.686Z,10.75
2023-04-25T21:33:36.460Z,11.27
2023-04-25T21:36:03.955Z,12.85
2023-04-25T21:38:34.042Z,8.77
2023-04-25T21:41:08.919Z,9.00
2023-04-25T21:43:37.185Z,8.45
2023-04-25T21:48:35.259Z,11.30
2023-04-25T21:51:03.052Z,9.48
2023-04-25T21:53:31.480Z,7.78
2023-04-25T21:55:58.763Z,7.97
2023-04-25T21:58:25.945Z,7.78
2023-04-25T22:00:53.213Z,13.40
2023-04-25T22:03:20.657Z,15.25
2023-04-25T22:05:47.957Z,7.88
2023-04-25T22:08:16.034Z,10.30
2023-04-25T22:10:44.583Z,10.10
2023-04-25T22:13:11.777Z,9.93
2023-04-25T22:15:39.179Z,9.52
2023-04-25T22:18:06.634Z,9.90
2023-04-25T22:20:34.904Z,10.57
2023-04-25T22:23:02.128Z,10.68
2023-04-25T22:25:29.915Z,7.85
2023-04-25T22:28:00.120Z,10.02
2023-04-25T22:30:31.009Z,12.50
2023-04-25T22:32:58.469Z,9.85
2023-04-25T22:35:25.824Z,10.60
2023-04-25T22:37:53.400Z,11.15
2023-04-25T22:40:26.595Z,8.15
2023-04-25T22:42:54.311Z,9.52
2023-04-25T22:45:21.773Z,9.23
2023-04-25T22:47:49.212Z,8.05
2023-04-25T22:50:17.234Z,9.60
2023-04-25T22:52:44.587Z,10.30
2023-04-25T22:55:13.167Z,12.43
2023-04-25T22:57:40.832Z,12.75
2023-04-25T23:00:15.641Z,11.27
2023-04-25T23:02:47.166Z,10.15
2023-04-25T23:05:15.671Z,10.82
2023-04-25T23:07:44.629Z,9.38
2023-04-25T23:10:13.122Z,8.75
2023-04-25T23:12:40.539Z,11.25
2023-04-25T23:15:09.764Z,13.27
2023-04-25T23:17:37.372Z,10.70
2023-04-25T23:20:10.091Z,11.02
2023-04-25T23:22:38.116Z,10.43
2023-04-25T23:25:07.383Z,16.75
2023-04-25T23:27:34.623Z,9.68
2023-04-25T23:30:01.845Z,14.13
2023-04-25T23:32:30.958Z,8.52
2023-04-25T23:34:58.408Z,11.25
2023-04-25T23:37:25.646Z,9.10
2023-04-25T23:39:53.091Z,10.75
2023-04-25T23:42:20.881Z,9.57
2023-04-25T23:44:49.549Z,12.15
2023-04-25T23:47:18.848Z,12.55
2023-04-25T23:49:46.567Z,7.93
2023-04-25T23:52:13.877Z,8.45
2023-04-25T23:54:41.102Z,8.23
2023-04-25T23:57:08.218Z,9.73
2023-04-25T23:59:35.428Z,9.02
